Rechercher aéroport 
image banner adimage banner ad
image banner ad

SNDR - Domingos Rego Airport

Situé à Timon, Brazil

ICAO - SNDR, IATA -

Données fournies par Airmate  

Information générale

Coordonnées: S5°4'51" W42°52'25"
Élévation : 301 feet MSL.
Variation magnétique : -21° East
Voir autres Aéroports à Maranhão

Données opérationnelles

Accessible au public
Heure actuelle UTC:
Heure actuelle locale:
METAR: SBTE 211300Z 15004KT CAVOK 25/23 Q1013
TAF: TAF SBTE 210845Z 2112/2124 36005KT 9999 SCT015 TX29/2117Z TN24/2124Z PROB40 2116/2120 TS SCT015 FEW030CB RMK PHQ
Voir NOTAMs / SUP AIP / TFR affectant cet aéroport [VIEW]
Fréquences de communication: [VIEW]

Pistes:

Identifiant RWYQFULongueur (ft)Largeur (ft)SurfaceLDA (ft)
02498098ASPH
20498098ASPH

Coordonnées de l'aéroport

Adresse: Timon Brazil

Vue satellite de SNDR